sensor_id;sensor_type;location;lat;lon;timestamp;pressure;altitude;pressure_sealevel;temperature;humidity
59375;BME280;45172;55.006;73.460;2023-06-10T00:00:41;100360.28;;;12.64;100.00
59375;BME280;45172;55.006;73.460;2023-06-10T00:03:08;100360.41;;;12.87;100.00
59375;BME280;45172;55.006;73.460;2023-06-10T00:05:35;100349.78;;;12.92;100.00
59375;BME280;45172;55.006;73.460;2023-06-10T00:08:02;100357.00;;;13.07;100.00
59375;BME280;45172;55.006;73.460;2023-06-10T00:10:34;100372.09;;;13.21;100.00
59375;BME280;45172;55.006;73.460;2023-06-10T00:13:02;100363.25;;;13.23;99.92
59375;BME280;45172;55.006;73.460;2023-06-10T00:15:29;100376.59;;;13.34;97.50
59375;BME280;45172;55.006;73.460;2023-06-10T00:17:55;100393.50;;;13.44;96.06
59375;BME280;45172;55.006;73.460;2023-06-10T00:20:22;100402.47;;;13.54;96.36
59375;BME280;45172;55.006;73.460;2023-06-10T00:22:50;100354.44;;;13.34;96.92
59375;BME280;45172;55.006;73.460;2023-06-10T00:25:16;100391.00;;;13.72;96.00
59375;BME280;45172;55.006;73.460;2023-06-10T00:27:43;100344.75;;;13.45;96.34
59375;BME280;45172;55.006;73.460;2023-06-10T00:30:10;100361.66;;;13.58;95.65
59375;BME280;45172;55.006;73.460;2023-06-10T00:32:36;100405.25;;;13.99;96.09
59375;BME280;45172;55.006;73.460;2023-06-10T00:35:06;100405.28;;;14.07;96.54
59375;BME280;45172;55.006;73.460;2023-06-10T00:37:33;100337.75;;;13.75;97.07
59375;BME280;45172;55.006;73.460;2023-06-10T00:40:05;100398.19;;;14.20;96.82
59375;BME280;45172;55.006;73.460;2023-06-10T00:42:31;100399.97;;;14.24;96.55
59375;BME280;45172;55.006;73.460;2023-06-10T00:44:57;100390.19;;;14.28;95.60
59375;BME280;45172;55.006;73.460;2023-06-10T00:47:25;100368.00;;;14.19;94.97
59375;BME280;45172;55.006;73.460;2023-06-10T00:49:51;100387.53;;;14.38;96.74
59375;BME280;45172;55.006;73.460;2023-06-10T00:52:18;100372.44;;;14.36;96.88
59375;BME280;45172;55.006;73.460;2023-06-10T00:54:46;100342.25;;;14.29;95.05
59375;BME280;45172;55.006;73.460;2023-06-10T00:57:12;100316.50;;;14.16;95.51
59375;BME280;45172;55.006;73.460;2023-06-10T00:59:41;100360.88;;;14.54;94.57
59375;BME280;45172;55.006;73.460;2023-06-10T01:02:10;100333.34;;;14.35;94.68
59375;BME280;45172;55.006;73.460;2023-06-10T01:04:36;100310.28;;;14.28;94.76
59375;BME280;45172;55.006;73.460;2023-06-10T01:07:10;100360.91;;;14.63;94.68
59375;BME280;45172;55.006;73.460;2023-06-10T01:09:55;100355.56;;;14.66;94.05
59375;BME280;45172;55.006;73.460;2023-06-10T01:12:39;100328.91;;;14.56;93.64
59375;BME280;45172;55.006;73.460;2023-06-10T01:15:08;100377.75;;;14.95;93.39
59375;BME280;45172;55.006;73.460;2023-06-10T01:17:54;100373.31;;;14.99;92.20
59375;BME280;45172;55.006;73.460;2023-06-10T01:20:20;100385.69;;;15.20;92.18
59375;BME280;45172;55.006;73.460;2023-06-10T01:22:46;100379.47;;;15.26;89.79
59375;BME280;45172;55.006;73.460;2023-06-10T01:25:13;100386.53;;;15.36;90.71
59375;BME280;45172;55.006;73.460;2023-06-10T01:27:40;100387.41;;;15.44;91.58
59375;BME280;45172;55.006;73.460;2023-06-10T01:30:12;100396.28;;;15.50;90.87
59375;BME280;45172;55.006;73.460;2023-06-10T01:32:45;100363.41;;;15.32;91.31
59375;BME280;45172;55.006;73.460;2023-06-10T01:35:14;100403.31;;;15.63;90.96
59375;BME280;45172;55.006;73.460;2023-06-10T01:37:43;100366.03;;;15.47;91.43
59375;BME280;45172;55.006;73.460;2023-06-10T01:40:12;100409.50;;;15.81;91.85
59375;BME280;45172;55.006;73.460;2023-06-10T01:42:40;100375.69;;;15.70;90.31
59375;BME280;45172;55.006;73.460;2023-06-10T01:45:06;100333.91;;;15.66;90.81
59375;BME280;45172;55.006;73.460;2023-06-10T01:47:32;100400.47;;;16.10;89.38
59375;BME280;45172;55.006;73.460;2023-06-10T01:49:58;100386.19;;;16.11;88.28
59375;BME280;45172;55.006;73.460;2023-06-10T01:52:24;100405.47;;;16.53;87.84
59375;BME280;45172;55.006;73.460;2023-06-10T01:54:51;100388.22;;;16.89;85.41
59375;BME280;45172;55.006;73.460;2023-06-10T01:57:18;100394.09;;;17.25;86.38
59375;BME280;45172;55.006;73.460;2023-06-10T01:59:45;100394.56;;;17.61;83.86
59375;BME280;45172;55.006;73.460;2023-06-10T02:02:11;100394.28;;;17.85;81.87
59375;BME280;45172;55.006;73.460;2023-06-10T02:04:38;100378.13;;;17.91;80.69
59375;BME280;45172;55.006;73.460;2023-06-10T02:07:04;100383.03;;;18.22;78.22
59375;BME280;45172;55.006;73.460;2023-06-10T02:09:31;100383.50;;;18.49;75.82
59375;BME280;45172;55.006;73.460;2023-06-10T02:12:04;100361.72;;;18.68;74.21
59375;BME280;45172;55.006;73.460;2023-06-10T02:14:32;100404.69;;;19.16;69.11
59375;BME280;45172;55.006;73.460;2023-06-10T02:16:58;100372.75;;;19.02;69.55
59375;BME280;45172;55.006;73.460;2023-06-10T02:19:24;100416.06;;;19.29;66.94
59375;BME280;45172;55.006;73.460;2023-06-10T02:21:52;100425.88;;;19.32;70.05
59375;BME280;45172;55.006;73.460;2023-06-10T02:24:18;100427.84;;;19.22;70.21
59375;BME280;45172;55.006;73.460;2023-06-10T02:26:44;100401.38;;;19.00;72.65
59375;BME280;45172;55.006;73.460;2023-06-10T02:29:10;100433.50;;;19.08;69.39
59375;BME280;45172;55.006;73.460;2023-06-10T02:31:38;100431.72;;;19.07;69.66
59375;BME280;45172;55.006;73.460;2023-06-10T02:34:05;100440.66;;;19.06;70.29
59375;BME280;45172;55.006;73.460;2023-06-10T02:36:31;100402.53;;;18.87;69.00
59375;BME280;45172;55.006;73.460;2023-06-10T02:38:58;100452.38;;;19.02;70.98
59375;BME280;45172;55.006;73.460;2023-06-10T02:41:24;100459.56;;;19.00;68.74
59375;BME280;45172;55.006;73.460;2023-06-10T02:43:51;100447.09;;;18.96;69.06
59375;BME280;45172;55.006;73.460;2023-06-10T02:46:17;100433.69;;;18.94;69.45
59375;BME280;45172;55.006;73.460;2023-06-10T02:48:43;100430.00;;;19.03;70.49
59375;BME280;45172;55.006;73.460;2023-06-10T02:51:12;100424.09;;;19.31;70.16
59375;BME280;45172;55.006;73.460;2023-06-10T02:53:38;100403.03;;;19.55;65.47
59375;BME280;45172;55.006;73.460;2023-06-10T02:56:04;100409.34;;;19.96;64.44
59375;BME280;45172;55.006;73.460;2023-06-10T02:58:31;100438.84;;;20.39;65.38
59375;BME280;45172;55.006;73.460;2023-06-10T03:00:57;100446.00;;;20.40;64.51
59375;BME280;45172;55.006;73.460;2023-06-10T03:03:24;100422.34;;;20.53;63.90
59375;BME280;45172;55.006;73.460;2023-06-10T03:05:51;100402.84;;;20.79;62.45
59375;BME280;45172;55.006;73.460;2023-06-10T03:08:17;100435.56;;;21.33;59.43
59375;BME280;45172;55.006;73.460;2023-06-10T03:10:43;100433.06;;;21.59;59.39
59375;BME280;45172;55.006;73.460;2023-06-10T03:13:09;100441.66;;;21.73;58.34
59375;BME280;45172;55.006;73.460;2023-06-10T03:15:35;100426.69;;;21.93;57.13
59375;BME280;45172;55.006;73.460;2023-06-10T03:18:02;100435.97;;;22.13;54.78
59375;BME280;45172;55.006;73.460;2023-06-10T03:20:28;100416.13;;;22.15;53.56
59375;BME280;45172;55.006;73.460;2023-06-10T03:22:54;100404.59;;;22.37;53.76
59375;BME280;45172;55.006;73.460;2023-06-10T03:25:20;100408.19;;;22.38;51.87
59375;BME280;45172;55.006;73.460;2023-06-10T03:27:46;100425.59;;;22.57;50.67
59375;BME280;45172;55.006;73.460;2023-06-10T03:30:13;100397.69;;;22.30;52.81
59375;BME280;45172;55.006;73.460;2023-06-10T03:32:40;100406.25;;;22.43;50.52
59375;BME280;45172;55.006;73.460;2023-06-10T03:35:32;100434.16;;;22.42;51.22
59375;BME280;45172;55.006;73.460;2023-06-10T03:37:59;100424.72;;;22.27;50.25
59375;BME280;45172;55.006;73.460;2023-06-10T03:40:25;100435.06;;;22.12;52.76
59375;BME280;45172;55.006;73.460;2023-06-10T03:42:52;100431.06;;;21.97;52.02
59375;BME280;45172;55.006;73.460;2023-06-10T03:45:17;100435.06;;;22.12;51.81
59375;BME280;45172;55.006;73.460;2023-06-10T03:47:47;100417.47;;;22.00;50.85
59375;BME280;45172;55.006;73.460;2023-06-10T03:50:13;100421.78;;;22.06;48.87
59375;BME280;45172;55.006;73.460;2023-06-10T03:52:41;100388.88;;;21.95;48.96
59375;BME280;45172;55.006;73.460;2023-06-10T03:55:07;100439.41;;;22.47;48.59
59375;BME280;45172;55.006;73.460;2023-06-10T03:57:33;100430.34;;;22.49;49.85
59375;BME280;45172;55.006;73.460;2023-06-10T03:59:59;100436.28;;;22.61;48.78
59375;BME280;45172;55.006;73.460;2023-06-10T04:02:25;100433.09;;;22.75;48.91
59375;BME280;45172;55.006;73.460;2023-06-10T04:04:51;100436.38;;;22.84;49.94
59375;BME280;45172;55.006;73.460;2023-06-10T04:07:18;100431.47;;;22.70;48.21
59375;BME280;45172;55.006;73.460;2023-06-10T04:09:46;100436.31;;;22.59;47.37
59375;BME280;45172;55.006;73.460;2023-06-10T04:12:12;100410.00;;;22.37;46.84
59375;BME280;45172;55.006;73.460;2023-06-10T04:14:38;100428.00;;;22.38;47.21
59375;BME280;45172;55.006;73.460;2023-06-10T04:17:05;100432.69;;;22.31;48.75
59375;BME280;45172;55.006;73.460;2023-06-10T04:19:34;100440.25;;;22.20;45.13
59375;BME280;45172;55.006;73.460;2023-06-10T04:22:01;100430.81;;;22.05;45.44
59375;BME280;45172;55.006;73.460;2023-06-10T04:24:28;100440.22;;;21.92;47.40
59375;BME280;45172;55.006;73.460;2023-06-10T04:26:54;100429.69;;;21.82;47.45
59375;BME280;45172;55.006;73.460;2023-06-10T04:29:21;100442.97;;;21.90;49.59
59375;BME280;45172;55.006;73.460;2023-06-10T04:31:47;100383.09;;;21.47;48.45
59375;BME280;45172;55.006;73.460;2023-06-10T04:34:14;100442.16;;;21.86;47.42
59375;BME280;45172;55.006;73.460;2023-06-10T04:36:40;100452.78;;;21.93;46.81
59375;BME280;45172;55.006;73.460;2023-06-10T04:39:06;100388.56;;;21.44;47.49
59375;BME280;45172;55.006;73.460;2023-06-10T04:41:32;100382.56;;;21.34;47.26
59375;BME280;45172;55.006;73.460;2023-06-10T04:43:58;100428.22;;;21.72;46.59
59375;BME280;45172;55.006;73.460;2023-06-10T04:46:25;100451.88;;;21.92;50.86
59375;BME280;45172;55.006;73.460;2023-06-10T04:48:51;100443.34;;;22.06;49.96
59375;BME280;45172;55.006;73.460;2023-06-10T04:51:17;100450.41;;;22.40;46.74
59375;BME280;45172;55.006;73.460;2023-06-10T04:53:43;100435.78;;;22.48;45.91
59375;BME280;45172;55.006;73.460;2023-06-10T04:56:09;100451.50;;;22.63;46.63
59375;BME280;45172;55.006;73.460;2023-06-10T04:58:35;100432.16;;;22.76;45.72
59375;BME280;45172;55.006;73.460;2023-06-10T05:01:02;100453.88;;;22.99;46.76
59375;BME280;45172;55.006;73.460;2023-06-10T05:03:29;100435.84;;;23.00;46.07
59375;BME280;45172;55.006;73.460;2023-06-10T05:05:55;100430.34;;;23.03;46.44
59375;BME280;45172;55.006;73.460;2023-06-10T05:08:21;100408.22;;;22.92;45.07
59375;BME280;45172;55.006;73.460;2023-06-10T05:10:47;100441.00;;;23.33;45.54
59375;BME280;45172;55.006;73.460;2023-06-10T05:13:13;100398.38;;;23.16;45.60
59375;BME280;45172;55.006;73.460;2023-06-10T05:15:40;100424.53;;;23.41;43.78
59375;BME280;45172;55.006;73.460;2023-06-10T05:18:10;100426.06;;;23.48;46.58
59375;BME280;45172;55.006;73.460;2023-06-10T05:20:38;100443.78;;;23.81;46.14
59375;BME280;45172;55.006;73.460;2023-06-10T05:23:05;100450.53;;;23.93;44.69
59375;BME280;45172;55.006;73.460;2023-06-10T05:25:32;100427.41;;;23.84;44.82
59375;BME280;45172;55.006;73.460;2023-06-10T05:27:59;100369.47;;;23.67;45.72
59375;BME280;45172;55.006;73.460;2023-06-10T05:30:25;100426.25;;;24.15;43.54
59375;BME280;45172;55.006;73.460;2023-06-10T05:32:52;100392.91;;;24.15;44.08
59375;BME280;45172;55.006;73.460;2023-06-10T05:35:21;100446.91;;;24.62;41.47
59375;BME280;45172;55.006;73.460;2023-06-10T05:37:48;100436.31;;;24.56;42.45
59375;BME280;45172;55.006;73.460;2023-06-10T05:40:15;100427.06;;;24.62;39.70
59375;BME280;45172;55.006;73.460;2023-06-10T05:42:41;100435.72;;;24.70;41.35
59375;BME280;45172;55.006;73.460;2023-06-10T05:45:08;100421.44;;;24.67;41.38
59375;BME280;45172;55.006;73.460;2023-06-10T05:47:35;100427.34;;;24.76;39.91
59375;BME280;45172;55.006;73.460;2023-06-10T05:50:01;100415.63;;;24.76;40.46
59375;BME280;45172;55.006;73.460;2023-06-10T05:52:28;100444.47;;;24.99;40.55
59375;BME280;45172;55.006;73.460;2023-06-10T05:54:53;100444.69;;;25.15;40.42
59375;BME280;45172;55.006;73.460;2023-06-10T05:57:23;100432.69;;;25.21;38.67
59375;BME280;45172;55.006;73.460;2023-06-10T05:59:58;100435.66;;;25.36;39.75
59375;BME280;45172;55.006;73.460;2023-06-10T06:02:31;100435.41;;;25.42;38.25
59375;BME280;45172;55.006;73.460;2023-06-10T06:05:06;100434.88;;;25.13;39.69
59375;BME280;45172;55.006;73.460;2023-06-10T06:07:32;100427.22;;;25.02;39.05
59375;BME280;45172;55.006;73.460;2023-06-10T06:09:58;100428.88;;;24.84;40.93
59375;BME280;45172;55.006;73.460;2023-06-10T06:12:25;100415.34;;;24.84;40.32
59375;BME280;45172;55.006;73.460;2023-06-10T06:14:51;100442.47;;;25.05;41.31
59375;BME280;45172;55.006;73.460;2023-06-10T06:17:17;100441.97;;;24.95;38.94
59375;BME280;45172;55.006;73.460;2023-06-10T06:19:43;100428.69;;;24.88;39.50
59375;BME280;45172;55.006;73.460;2023-06-10T06:22:09;100371.84;;;24.44;39.37
59375;BME280;45172;55.006;73.460;2023-06-10T06:24:36;100410.34;;;24.73;39.57
59375;BME280;45172;55.006;73.460;2023-06-10T06:27:02;100441.22;;;24.91;39.95
59375;BME280;45172;55.006;73.460;2023-06-10T06:29:28;100432.88;;;24.96;39.57
59375;BME280;45172;55.006;73.460;2023-06-10T06:31:55;100380.13;;;24.84;39.44
59375;BME280;45172;55.006;73.460;2023-06-10T06:34:21;100435.34;;;25.23;38.09
59375;BME280;45172;55.006;73.460;2023-06-10T06:36:47;100403.91;;;25.19;39.66
59375;BME280;45172;55.006;73.460;2023-06-10T06:39:13;100425.69;;;25.36;40.03
59375;BME280;45172;55.006;73.460;2023-06-10T06:41:39;100428.41;;;25.36;39.75
59375;BME280;45172;55.006;73.460;2023-06-10T06:44:05;100416.00;;;25.30;38.91
59375;BME280;45172;55.006;73.460;2023-06-10T06:46:31;100416.59;;;25.37;41.55
59375;BME280;45172;55.006;73.460;2023-06-10T06:48:58;100411.06;;;25.61;41.18
59375;BME280;45172;55.006;73.460;2023-06-10T06:51:24;100422.34;;;25.71;40.29
59375;BME280;45172;55.006;73.460;2023-06-10T06:53:50;100418.03;;;25.86;39.60
59375;BME280;45172;55.006;73.460;2023-06-10T06:56:17;100427.41;;;25.79;38.56
59375;BME280;45172;55.006;73.460;2023-06-10T06:58:45;100431.38;;;25.91;39.51
59375;BME280;45172;55.006;73.460;2023-06-10T07:01:11;100431.88;;;25.99;38.69
59375;BME280;45172;55.006;73.460;2023-06-10T07:03:37;100418.31;;;25.99;37.24
59375;BME280;45172;55.006;73.460;2023-06-10T07:06:03;100430.88;;;26.02;37.55
59375;BME280;45172;55.006;73.460;2023-06-10T07:08:29;100416.63;;;25.96;36.25
59375;BME280;45172;55.006;73.460;2023-06-10T07:10:55;100399.25;;;25.62;37.59
59375;BME280;45172;55.006;73.460;2023-06-10T07:13:21;100416.84;;;25.73;38.95
59375;BME280;45172;55.006;73.460;2023-06-10T07:15:49;100413.25;;;25.91;38.43
59375;BME280;45172;55.006;73.460;2023-06-10T07:18:15;100419.00;;;26.23;35.55
59375;BME280;45172;55.006;73.460;2023-06-10T07:20:43;100422.78;;;26.38;37.81
59375;BME280;45172;55.006;73.460;2023-06-10T07:23:10;100428.09;;;26.59;37.28
59375;BME280;45172;55.006;73.460;2023-06-10T07:25:36;100415.25;;;26.63;39.16
59375;BME280;45172;55.006;73.460;2023-06-10T07:28:03;100421.13;;;26.90;36.05
59375;BME280;45172;55.006;73.460;2023-06-10T07:30:29;100401.94;;;26.93;36.53
59375;BME280;45172;55.006;73.460;2023-06-10T07:32:55;100414.34;;;26.80;35.64
59375;BME280;45172;55.006;73.460;2023-06-10T07:35:21;100387.50;;;26.56;37.32
59375;BME280;45172;55.006;73.460;2023-06-10T07:37:47;100411.16;;;26.54;36.03
59375;BME280;45172;55.006;73.460;2023-06-10T07:40:14;100362.34;;;26.16;38.45
59375;BME280;45172;55.006;73.460;2023-06-10T07:42:40;100394.91;;;26.52;37.56
59375;BME280;45172;55.006;73.460;2023-06-10T07:45:07;100384.22;;;26.49;36.64
59375;BME280;45172;55.006;73.460;2023-06-10T07:47:33;100393.75;;;26.58;36.07
59375;BME280;45172;55.006;73.460;2023-06-10T07:49:59;100413.25;;;26.66;38.17
59375;BME280;45172;55.006;73.460;2023-06-10T07:52:27;100405.69;;;26.91;37.83
59375;BME280;45172;55.006;73.460;2023-06-10T07:54:54;100377.88;;;26.86;36.16
59375;BME280;45172;55.006;73.460;2023-06-10T07:57:20;100396.72;;;27.24;35.71
59375;BME280;45172;55.006;73.460;2023-06-10T07:59:46;100363.88;;;27.11;36.63
59375;BME280;45172;55.006;73.460;2023-06-10T08:02:12;100396.88;;;27.21;34.85
59375;BME280;45172;55.006;73.460;2023-06-10T08:04:38;100398.59;;;27.40;34.50
59375;BME280;45172;55.006;73.460;2023-06-10T08:07:04;100362.34;;;27.23;34.88
59375;BME280;45172;55.006;73.460;2023-06-10T08:09:31;100352.00;;;27.30;36.16
59375;BME280;45172;55.006;73.460;2023-06-10T08:11:57;100400.38;;;27.90;35.94
59375;BME280;45172;55.006;73.460;2023-06-10T08:14:23;100405.56;;;28.11;33.05
59375;BME280;45172;55.006;73.460;2023-06-10T08:16:49;100400.66;;;28.02;33.46
59375;BME280;45172;55.006;73.460;2023-06-10T08:19:15;100402.66;;;28.14;31.91
59375;BME280;45172;55.006;73.460;2023-06-10T08:21:42;100375.44;;;28.14;32.81
59375;BME280;45172;55.006;73.460;2023-06-10T08:24:09;100411.91;;;28.44;32.66
59375;BME280;45172;55.006;73.460;2023-06-10T08:26:35;100405.66;;;28.10;32.36
59375;BME280;45172;55.006;73.460;2023-06-10T08:29:02;100384.03;;;27.90;31.84
59375;BME280;45172;55.006;73.460;2023-06-10T08:31:28;100384.66;;;27.64;33.85
59375;BME280;45172;55.006;73.460;2023-06-10T08:33:55;100408.91;;;27.51;32.64
59375;BME280;45172;55.006;73.460;2023-06-10T08:36:21;100397.22;;;27.48;33.21
59375;BME280;45172;55.006;73.460;2023-06-10T08:39:00;100406.88;;;27.72;33.82
59375;BME280;45172;55.006;73.460;2023-06-10T08:41:28;100408.75;;;28.03;34.41
59375;BME280;45172;55.006;73.460;2023-06-10T08:44:22;100399.22;;;28.11;32.97
59375;BME280;45172;55.006;73.460;2023-06-10T08:46:47;100433.50;;;28.15;32.35
59375;BME280;45172;55.006;73.460;2023-06-10T08:49:18;100386.69;;;27.42;33.91
59375;BME280;45172;55.006;73.460;2023-06-10T08:51:49;100428.06;;;27.31;34.37
59375;BME280;45172;55.006;73.460;2023-06-10T08:54:25;100422.91;;;26.55;35.70
59375;BME280;45172;55.006;73.460;2023-06-10T08:56:55;100412.22;;;25.94;37.60
59375;BME280;45172;55.006;73.460;2023-06-10T08:59:21;100413.56;;;25.45;39.01
59375;BME280;45172;55.006;73.460;2023-06-10T09:01:47;100418.81;;;25.08;40.38
59375;BME280;45172;55.006;73.460;2023-06-10T09:04:14;100418.63;;;24.70;41.07
59375;BME280;45172;55.006;73.460;2023-06-10T09:06:44;100430.34;;;24.48;42.72
59375;BME280;45172;55.006;73.460;2023-06-10T09:09:12;100383.28;;;24.07;43.84
59375;BME280;45172;55.006;73.460;2023-06-10T09:11:39;100432.34;;;24.43;44.20
59375;BME280;45172;55.006;73.460;2023-06-10T09:14:11;100444.38;;;24.35;46.68
59375;BME280;45172;55.006;73.460;2023-06-10T09:16:39;100425.09;;;23.97;44.90
59375;BME280;45172;55.006;73.460;2023-06-10T09:19:06;100451.31;;;24.20;44.62
59375;BME280;45172;55.006;73.460;2023-06-10T09:21:36;100421.41;;;24.00;45.09
59375;BME280;45172;55.006;73.460;2023-06-10T09:24:03;100439.66;;;24.18;43.45
59375;BME280;45172;55.006;73.460;2023-06-10T09:26:32;100435.44;;;24.33;40.88
59375;BME280;45172;55.006;73.460;2023-06-10T09:29:07;100452.13;;;24.89;42.50
59375;BME280;45172;55.006;73.460;2023-06-10T09:31:35;100401.25;;;25.17;41.77
59375;BME280;45172;55.006;73.460;2023-06-10T09:34:13;100374.19;;;25.36;41.13
59375;BME280;45172;55.006;73.460;2023-06-10T09:36:39;100441.00;;;25.98;40.72
59375;BME280;45172;55.006;73.460;2023-06-10T09:39:14;100439.81;;;26.04;39.65
59375;BME280;45172;55.006;73.460;2023-06-10T09:41:41;100420.75;;;26.24;39.47
59375;BME280;45172;55.006;73.460;2023-06-10T09:44:12;100420.63;;;26.45;40.57
59375;BME280;45172;55.006;73.460;2023-06-10T09:46:40;100434.41;;;26.60;40.92
59375;BME280;45172;55.006;73.460;2023-06-10T09:49:07;100413.19;;;26.12;38.92
59375;BME280;45172;55.006;73.460;2023-06-10T09:51:33;100395.16;;;25.73;42.07
59375;BME280;45172;55.006;73.460;2023-06-10T09:54:02;100386.59;;;25.42;40.21
59375;BME280;45172;55.006;73.460;2023-06-10T09:56:33;100426.22;;;25.44;40.48
59375;BME280;45172;55.006;73.460;2023-06-10T09:59:00;100400.44;;;24.94;40.54
59375;BME280;45172;55.006;73.460;2023-06-10T10:01:26;100423.88;;;24.73;41.37
59375;BME280;45172;55.006;73.460;2023-06-10T10:03:52;100388.81;;;24.27;42.25
59375;BME280;45172;55.006;73.460;2023-06-10T10:06:20;100376.50;;;23.96;43.32
59375;BME280;45172;55.006;73.460;2023-06-10T10:08:50;100413.25;;;24.01;45.17
59375;BME280;45172;55.006;73.460;2023-06-10T10:11:18;100377.03;;;23.81;44.93
59375;BME280;45172;55.006;73.460;2023-06-10T10:13:48;100405.00;;;23.80;44.53
59375;BME280;45172;55.006;73.460;2023-06-10T10:16:17;100409.47;;;23.81;44.50
59375;BME280;45172;55.006;73.460;2023-06-10T10:18:49;100414.47;;;23.92;44.44
59375;BME280;45172;55.006;73.460;2023-06-10T10:21:22;100430.09;;;24.10;46.60
59375;BME280;45172;55.006;73.460;2023-06-10T10:24:33;100425.25;;;23.94;45.99
59375;BME280;45172;55.006;73.460;2023-06-10T10:26:58;100411.19;;;23.84;46.17
59375;BME280;45172;55.006;73.460;2023-06-10T10:29:33;100418.94;;;23.93;47.05
59375;BME280;45172;55.006;73.460;2023-06-10T10:32:03;100418.31;;;23.87;47.09
59375;BME280;45172;55.006;73.460;2023-06-10T10:34:37;100398.72;;;24.04;47.35
59375;BME280;45172;55.006;73.460;2023-06-10T10:37:05;100414.00;;;24.72;46.78
59375;BME280;45172;55.006;73.460;2023-06-10T10:39:34;100385.25;;;25.11;46.76
59375;BME280;45172;55.006;73.460;2023-06-10T10:42:03;100405.41;;;25.66;43.08
59375;BME280;45172;55.006;73.460;2023-06-10T10:44:31;100419.91;;;26.03;41.69
59375;BME280;45172;55.006;73.460;2023-06-10T10:47:02;100421.84;;;26.01;41.49
59375;BME280;45172;55.006;73.460;2023-06-10T10:49:30;100417.31;;;25.82;41.28
59375;BME280;45172;55.006;73.460;2023-06-10T10:52:00;100365.50;;;25.49;44.14
59375;BME280;45172;55.006;73.460;2023-06-10T10:54:33;100413.97;;;25.56;42.61
59375;BME280;45172;55.006;73.460;2023-06-10T10:57:10;100423.72;;;25.40;43.14
59375;BME280;45172;55.006;73.460;2023-06-10T10:59:59;100404.59;;;25.24;43.85
59375;BME280;45172;55.006;73.460;2023-06-10T11:04:58;100417.19;;;25.25;42.78
59375;BME280;45172;55.006;73.460;2023-06-10T11:07:30;100395.97;;;25.35;43.67
59375;BME280;45172;55.006;73.460;2023-06-10T11:10:11;100419.13;;;25.82;41.37
59375;BME280;45172;55.006;73.460;2023-06-10T11:15:25;100419.13;;;26.01;40.83
59375;BME280;45172;55.006;73.460;2023-06-10T11:18:15;100423.31;;;25.89;39.43
59375;BME280;45172;55.006;73.460;2023-06-10T11:20:45;100436.66;;;25.94;41.72
59375;BME280;45172;55.006;73.460;2023-06-10T11:26:20;100432.69;;;26.39;39.49
59375;BME280;45172;55.006;73.460;2023-06-10T11:31:20;100434.16;;;26.64;39.82
59375;BME280;45172;55.006;73.460;2023-06-10T11:33:53;100435.03;;;26.47;39.19
59375;BME280;45172;55.006;73.460;2023-06-10T11:36:20;100396.75;;;26.15;38.35
59375;BME280;45172;55.006;73.460;2023-06-10T11:38:47;100429.75;;;26.25;38.70
59375;BME280;45172;55.006;73.460;2023-06-10T11:41:14;100412.72;;;26.02;39.74
59375;BME280;45172;55.006;73.460;2023-06-10T11:43:46;100413.91;;;25.96;39.46
59375;BME280;45172;55.006;73.460;2023-06-10T11:46:14;100427.34;;;26.38;39.17
59375;BME280;45172;55.006;73.460;2023-06-10T11:48:49;100422.91;;;26.72;37.97
59375;BME280;45172;55.006;73.460;2023-06-10T11:51:16;100429.03;;;27.13;37.10
59375;BME280;45172;55.006;73.460;2023-06-10T11:53:44;100386.59;;;26.92;36.67
59375;BME280;45172;55.006;73.460;2023-06-10T11:56:12;100431.25;;;27.40;38.69
59375;BME280;45172;55.006;73.460;2023-06-10T11:58:43;100439.00;;;27.30;38.70
59375;BME280;45172;55.006;73.460;2023-06-10T12:01:11;100431.38;;;27.54;38.45
59375;BME280;45172;55.006;73.460;2023-06-10T12:03:44;100406.06;;;27.36;38.37
59375;BME280;45172;55.006;73.460;2023-06-10T12:06:11;100368.81;;;27.03;38.16
59375;BME280;45172;55.006;73.460;2023-06-10T12:08:42;100402.34;;;27.03;38.09
59375;BME280;45172;55.006;73.460;2023-06-10T12:11:09;100443.81;;;27.42;37.08
59375;BME280;45172;55.006;73.460;2023-06-10T12:13:36;100402.13;;;27.42;37.11
59375;BME280;45172;55.006;73.460;2023-06-10T12:16:09;100430.13;;;27.78;36.12
59375;BME280;45172;55.006;73.460;2023-06-10T12:18:36;100409.13;;;27.80;36.17
59375;BME280;45172;55.006;73.460;2023-06-10T12:21:02;100433.06;;;28.07;35.69
59375;BME280;45172;55.006;73.460;2023-06-10T12:23:30;100429.03;;;28.14;36.10
59375;BME280;45172;55.006;73.460;2023-06-10T12:25:56;100372.56;;;27.18;36.97
59375;BME280;45172;55.006;73.460;2023-06-10T12:28:26;100431.13;;;27.07;36.79
59375;BME280;45172;55.006;73.460;2023-06-10T12:31:08;100446.28;;;27.29;37.69
59375;BME280;45172;55.006;73.460;2023-06-10T12:33:35;100440.81;;;27.47;36.53
59375;BME280;45172;55.006;73.460;2023-06-10T12:36:02;100432.34;;;27.35;35.08
59375;BME280;45172;55.006;73.460;2023-06-10T12:38:28;100438.16;;;26.94;34.43
59375;BME280;45172;55.006;73.460;2023-06-10T12:41:04;100448.34;;;26.71;33.83
59375;BME280;45172;55.006;73.460;2023-06-10T12:43:31;100454.38;;;26.59;32.94
59375;BME280;45172;55.006;73.460;2023-06-10T12:46:09;100421.03;;;26.18;32.54
59375;BME280;45172;55.006;73.460;2023-06-10T12:48:35;100458.97;;;26.76;32.38
59375;BME280;45172;55.006;73.460;2023-06-10T12:51:01;100451.25;;;27.03;33.81
59375;BME280;45172;55.006;73.460;2023-06-10T12:53:27;100469.66;;;27.16;31.81
59375;BME280;45172;55.006;73.460;2023-06-10T12:55:55;100457.88;;;27.51;31.36